Houston, TX

09:32 PM CST em 01 de Março de 2015 (GMT -0600)
George Bush Intercontinental-Houston Airport | Change Station
CLOSE
Current Station
Aeroporto
Location: Houston Intercontinental,
Altitude: 108 ft
Estações Meteorológicas Próximas

Elev 108 ft 29.98 °N, 95.34 °W | Updated 39 minutes ago

Nevoeiro
Nevoeiro
51 °F
Aparente 51 °F
N
8
Vento Variável Vento de Norte

Hoje
Máxima -- | Mínima -- °F
--% Possibilidade de Precip.
Ontem
Máxima -- | Mínima -- °F
Precip. -- pol
6:47 AM 6:20 PM
Lua crescente, 89% visible
Pressão 30.26 pol
Visibilidade 0.2 milhas
Nuvens Céu Encoberto 300 ft
Ponto de Orvalho 50 °F
Humidade 96%
Chuva 0.22 pol
Altura de Neve Não disponível
UV 0 em vez de 12
Pólen 6.40 em vez de 12
Qualidade do Ar Não disponível
Flu Activity Não disponível
METAR KIAH 020253Z 35007KT 1/4SM BR OVC003 11/10 A3025 RMK AO2 SFC VIS 1 SLP245 T01060100 53016

More Conditions Fewer Conditions

Pressão 30.26 pol
Visibilidade 0.2 milhas
Nuvens Céu Encoberto 300 ft
Ponto de Orvalho 50 °F
Humidade 96%
Chuva 0.22 pol
Altura de Neve Não disponível
UV 0 em vez de 12
Pólen 6.40 em vez de 12
Qualidade do Ar Não disponível
Flu Activity Não disponível
METAR KIAH 020253Z 35007KT 1/4SM BR OVC003 11/10 A3025 RMK AO2 SFC VIS 1 SLP245 T01060100 53016

More Conditions Fewer Conditions

10-Day Weather Forecast

Almanac

Astronomia

Mar. 01, 2015 Nascer Pôr
Hora atual
Crepúsculo civil
Crepúsculo náutico
Crepúsculo astronómico
Lua
Comprimento da luz visível
Duração do Dia
Tomorrow will be .
, % of the Moon is Illuminated

Extremos de Hoje

situação na parte mais alta situação na parte mais baixa

Community

WunderPhotos

Upload Photos

1,801,717 fotografias inseridas!

WunderBlogs® & News

Nearby

Qualidade do Ar

  Qualidade do Ar Índice da Q.A. Poluente
Not available.

Altura da Neve

Estação altura Altitude

Actividade Sísmisca

Cidade Distância Mag. Hora & Data
Mínima magnitude apresentada é 2.5.

Temperaturas das Águas Costeiras

Local Temperatura

Estações Meteorológicas Próximas